Oak Point, Texas
Current Conditions -  °F | °C
As of 10:53 AM on Friday 28 Nov 2014 (Local Time) from KDTO Reporting Station
Clear Clear  
Wind Chill: 61°   Ceiling: Unl
Heat Index: 61°   Visibility: 10mi
Dew Point: 46°   Wind: 23mph
Humidity: 58%   Direction: 200°SSW
Pressure: 30.19"   Gusts: 30mph
Location:  33.1913°N, 96.9829°W
Report Text: KDTO 281653Z 20020G26KT 10SM CLR 16/08 A3019 RMK AO2 PK WND 20027/1628 SLP221 T01610078
Loading
Personal Weather Stations






























Interactive Weather Map New forecast layout! Learn more

10-Day Weather Forecast

Advertisements
Track Severe Weather on mobile